Antares — DFJQ — position and weather

sailwx.info

Track history (hours):
 
Tides and Currents Weather Stations Pressure Air Temp Water Temp Dewpoint Dewpoint Depression Visibility Wind Speed Wind Dir Waves Ship Positions

Antares

Last reported at 2018-Jan-22 00:00 UTC. Time now 2018-Jan-22 00:28 UTC.
Position N 53°25' W 003°01'.

Length 79 m; draft 4.2 m.

Type: Ship. MMSI: 218777000.

Date/timePositionNaut miles runAvg speedWind from/ knotsBaromVisibWave heightAir tempDewpointWater temp
2018-Jan-22 00:00N 53°25' W 003°01'1 1.5
2018-Jan-21 23:30N 53°24' W 003°01'0 0.0
2018-Jan-21 23:00N 53°24' W 003°01'0 0.0
2018-Jan-21 22:30N 53°24' W 003°01'1 1.9
2018-Jan-21 22:01N 53°24' W 003°03'0 0.5
2018-Jan-21 21:28N 53°25' W 003°03'0 0.0
2018-Jan-21 20:58N 53°25' W 003°03'0 0.0
2018-Jan-21 20:28N 53°25' W 003°03'0 0.0
2018-Jan-21 19:55N 53°25' W 003°03'0 0.0
2018-Jan-21 19:28N 53°25' W 003°03'0 0.0
2018-Jan-21 18:58N 53°25' W 003°03'0 0.0
2018-Jan-21 18:28N 53°25' W 003°03'0 0.0
2018-Jan-21 17:58N 53°25' W 003°03'0 0.0
2018-Jan-21 17:28N 53°25' W 003°03'0 0.0
2018-Jan-21 16:58N 53°25' W 003°03'0 0.0
2018-Jan-21 16:28N 53°25' W 003°03'0 0.0
2018-Jan-21 15:58N 53°25' W 003°03'0 0.0
2018-Jan-21 15:28N 53°25' W 003°03'0 0.0
2018-Jan-21 14:58N 53°25' W 003°03'0 0.0
2018-Jan-21 14:28N 53°25' W 003°03'0 0.0
2018-Jan-21 13:58N 53°25' W 003°03'0 0.0
2018-Jan-21 13:28N 53°25' W 003°03'0 0.0
2018-Jan-21 12:58N 53°25' W 003°03'0 0.0
2018-Jan-21 12:28N 53°25' W 003°03'0 0.0
2018-Jan-21 11:49N 53°25' W 003°03'0 0.0
2018-Jan-21 11:28N 53°25' W 003°03'0 0.0
2018-Jan-21 10:58N 53°25' W 003°03'0 0.0
2018-Jan-21 10:25N 53°25' W 003°03'0 0.0
2018-Jan-21 09:55N 53°25' W 003°03'0 0.0
2018-Jan-21 09:28N 53°25' W 003°03'0 0.0
2018-Jan-21 08:55N 53°25' W 003°03'0 0.0
2018-Jan-21 08:28N 53°25' W 003°03'0 0.0
2018-Jan-21 07:58N 53°25' W 003°03'0 0.0
2018-Jan-21 07:25N 53°25' W 003°03'0 0.0
2018-Jan-21 06:58N 53°25' W 003°03'0 0.0
2018-Jan-21 06:25N 53°25' W 003°03'0 0.0
2018-Jan-21 05:58N 53°25' W 003°03'0 0.0
2018-Jan-21 05:28N 53°25' W 003°03'0 0.0
2018-Jan-21 04:58N 53°25' W 003°03'0 0.0
2018-Jan-21 04:25N 53°25' W 003°03'0 0.0
2018-Jan-21 04:00N 53°25' W 003°03'1 1.2
2018-Jan-21 03:30N 53°24' W 003°02'1 1.2
2018-Jan-21 03:00N 53°24' W 003°01'0 0.0
2018-Jan-21 02:28N 53°24' W 003°01'0 0.0
2018-Jan-21 02:00N 53°24' W 003°01'0 0.0
2018-Jan-21 01:30N 53°24' W 003°01'0 0.0
2018-Jan-21 01:00N 53°24' W 003°01'0 0.2
2018-Jan-21 00:30N 53°24' W 003°01'0 0.5
2018-Jan-21 00:00N 53°24' W 003°01'4 8.1
2018-Jan-20 23:30N 53°28' W 003°04'510.0
2018-Jan-20 23:00N 53°32' W 003°09'510.5
2018-Jan-20 22:30N 53°31' W 003°18'5 9.2
2018-Jan-20 22:00N 53°29' W 003°25'0 0.3
2018-Jan-20 21:28N 53°30' W 003°26'0 0.1
2018-Jan-20 20:58N 53°30' W 003°26'0 0.1
2018-Jan-20 20:28N 53°30' W 003°26'0 0.1
2018-Jan-20 19:58N 53°30' W 003°26'0 0.0
2018-Jan-20 19:28N 53°30' W 003°26'0 0.0
2018-Jan-20 18:58N 53°30' W 003°26'0 0.0
2018-Jan-20 18:28N 53°30' W 003°26'0 0.0
2018-Jan-20 17:58N 53°30' W 003°26'0 0.0
2018-Jan-20 17:22N 53°30' W 003°26'0 0.0
2018-Jan-20 16:58N 53°30' W 003°26'0 0.0
2018-Jan-20 16:28N 53°30' W 003°26'0 0.0
2018-Jan-20 16:00N 53°30' W 003°26'2 4.1
2018-Jan-20 15:30N 53°30' W 003°29'4 8.6
2018-Jan-20 15:00N 53°31' W 003°36'5 9.0
2018-Jan-20 14:30N 53°31' W 003°44'5 9.3
2018-Jan-20 14:00N 53°31' W 003°52'5 9.6
2018-Jan-20 13:30N 53°30' W 003°60'164 9.1
2018-Jan-19 19:26N 51°01' W 005°52'6 9.3
2018-Jan-19 18:49N 50°56' W 005°52'3 9.2
2018-Jan-19 18:30N 50°53' W 005°53'5 9.1
2018-Jan-19 18:01N 50°48' W 005°53'5 9.2
2018-Jan-19 17:27N 50°43' W 005°54'4 8.7
2018-Jan-19 17:00N 50°39' W 005°55'4 8.2
2018-Jan-19 16:31N 50°35' W 005°54'5 8.4
2018-Jan-19 15:58N 50°31' W 005°54'4 8.5
2018-Jan-19 15:30N 50°27' W 005°53'4 8.1
2018-Jan-19 15:01N 50°23' W 005°52'4 8.3
2018-Jan-19 14:31N 50°19' W 005°52'4 8.6
2018-Jan-19 14:00N 50°14' W 005°53'12 8.2
2018-Jan-19 12:33N 50°02' W 005°53'0 8.0
2018-Jan-19 12:30N 50°02' W 005°53'14 6.8
2018-Jan-19 10:23N 49°56' W 005°32'15 7.3
2018-Jan-19 08:23N 49°55' W 005°10'3 7.1
2018-Jan-19 08:00N 49°56' W 005°06'4 7.3
2018-Jan-19 07:30N 49°56' W 005°00'4 7.1
2018-Jan-19 07:00N 49°57' W 004°55'3 6.8
2018-Jan-19 06:31N 49°57' W 004°49'3 6.9
2018-Jan-19 06:01N 49°58' W 004°44'4 7.1
2018-Jan-19 05:31N 49°59' W 004°39'3 7.0
2018-Jan-19 05:00N 49°59' W 004°33'3 6.8
2018-Jan-19 04:31N 49°60' W 004°28'3 6.7
2018-Jan-19 04:01N 50°00' W 004°23'3 6.8
2018-Jan-19 03:30N 50°01' W 004°18'3 6.8
2018-Jan-19 03:00N 50°02' W 004°13'4 7.0
2018-Jan-19 02:30N 50°03' W 004°08'4 7.5
2018-Jan-19 02:01N 50°05' W 004°02'4 8.2
2018-Jan-19 01:30N 50°06' W 003°56'4 8.4
2018-Jan-19 01:00N 50°07' W 003°50'4 8.6
2018-Jan-19 00:31N 50°09' W 003°44'4 8.6
2018-Jan-19 00:01N 50°10' W 003°37'4 8.6
2018-Jan-18 23:31N 50°12' W 003°31'4 8.4
2018-Jan-18 23:00N 50°13' W 003°25'4 7.8
2018-Jan-18 22:31N 50°14' W 003°19'4 7.3
2018-Jan-18 22:00N 50°15' W 003°14'3 6.7
2018-Jan-18 21:30N 50°16' W 003°09'3 6.4
2018-Jan-18 21:01N 50°17' W 003°04'3 5.9
2018-Jan-18 20:31N 50°18' W 002°59'3 5.5
2018-Jan-18 20:00N 50°18' W 002°55'3 5.5
2018-Jan-18 19:30N 50°19' W 002°51'3 5.7
2018-Jan-18 19:00N 50°20' W 002°47'3 5.9
2018-Jan-18 18:31N 50°21' W 002°42'3 6.3
2018-Jan-18 18:00N 50°22' W 002°38'4 7.5
2018-Jan-18 17:31N 50°23' W 002°32'4 8.0
2018-Jan-18 17:01N 50°24' W 002°26'4 8.3
2018-Jan-18 16:31N 50°25' W 002°20'17 9.4
2018-Jan-18 14:43N 50°21' W 001°54'310.2
2018-Jan-18 14:25N 50°20' W 001°50'5 9.7
2018-Jan-18 13:53N 50°18' W 001°42'39 4.3
2018-Jan-18 04:55N 49°51' W 000°60'3 5.2
2018-Jan-18 04:25N 49°49' W 000°57'2 5.7
2018-Jan-18 04:00N 49°47' W 000°54'3 6.7
2018-Jan-18 03:31N 49°45' W 000°50'4 7.3
2018-Jan-18 03:01N 49°43' W 000°46'4 7.6
2018-Jan-18 02:31N 49°40' W 000°42'4 7.5
2018-Jan-18 02:01N 49°38' W 000°37'4 7.4
2018-Jan-18 01:30N 49°36' W 000°33'4 7.5
2018-Jan-18 01:01N 49°34' W 000°27'8 7.8
2018-Jan-18 00:01N 49°31' W 000°16'0 8.3
2018-Jan-17 23:58N 49°31' W 000°15'  
2018-Jan-12 15:00N 51°28' E 003°31'5 9.7
2018-Jan-12 14:30N 51°26' E 003°38'510.9
2018-Jan-12 14:00N 51°22' E 003°44'612.1
2018-Jan-12 13:30N 51°22' E 003°54'611.8
2018-Jan-12 13:00N 51°26' E 003°59'510.7
2018-Jan-12 12:31N 51°22' E 004°05'510.0
2018-Jan-12 12:00N 51°23' E 004°13'4 7.2
2018-Jan-12 11:28N 51°21' E 004°17'0 0.0
2018-Jan-12 11:00N 51°21' E 004°17'1 2.1
2018-Jan-12 10:30N 51°20' E 004°18'3 6.0
2018-Jan-12 10:01N 51°17' E 004°20'0 0.2
2018-Jan-12 09:30N 51°17' E 004°20'0 0.0
2018-Jan-12 09:00N 51°17' E 004°20'0 0.0
2018-Jan-12 08:27N 51°17' E 004°20'0 0.0
2018-Jan-12 08:00N 51°17' E 004°20'0 0.0
2018-Jan-12 07:30N 51°17' E 004°20'0 0.0
2018-Jan-12 07:00N 51°17' E 004°20'0 0.0
2018-Jan-12 06:30N 51°17' E 004°20'0 0.0
2018-Jan-12 05:57N 51°17' E 004°20'0 0.0
2018-Jan-12 05:27N 51°17' E 004°20'0 0.0
2018-Jan-12 05:00N 51°17' E 004°20'0 0.0
2018-Jan-12 04:27N 51°17' E 004°20'0 0.0
2018-Jan-12 04:00N 51°17' E 004°20'0 0.0
2018-Jan-12 03:21N 51°17' E 004°20'0 0.0
2018-Jan-12 02:57N 51°17' E 004°20'0 0.0
2018-Jan-12 02:30N 51°17' E 004°20'0 0.0
2018-Jan-12 02:00N 51°17' E 004°20'0 0.0
2018-Jan-12 01:30N 51°17' E 004°20'0 0.0
2018-Jan-12 00:51N 51°17' E 004°20'0 0.0
2018-Jan-12 00:30N 51°17' E 004°20'0 0.0
2018-Jan-12 00:00N 51°17' E 004°20'  
Track history (hours):
 
Tides and Currents Weather Stations Pressure Air Temp Water Temp Dewpoint Dewpoint Depression Visibility Wind Speed Wind Dir Waves Ship Positions

Antares

Last reported at 2018-Jan-22 00:00 UTC. Time now 2018-Jan-22 00:28 UTC.
Position N 53°25' W 003°01'.

Length 79 m; draft 4.2 m.

Type: Ship. MMSI: 218777000.

Date/timePositionNaut miles runAvg speedWind from/ knotsBaromVisibWave heightAir tempDewpointWater temp
2018-Jan-22 00:00N 53°25' W 003°01'1 1.5
2018-Jan-21 23:30N 53°24' W 003°01'0 0.0
2018-Jan-21 23:00N 53°24' W 003°01'0 0.0
2018-Jan-21 22:30N 53°24' W 003°01'1 1.9
2018-Jan-21 22:01N 53°24' W 003°03'0 0.5
2018-Jan-21 21:28N 53°25' W 003°03'0 0.0
2018-Jan-21 20:58N 53°25' W 003°03'0 0.0
2018-Jan-21 20:28N 53°25' W 003°03'0 0.0
2018-Jan-21 19:55N 53°25' W 003°03'0 0.0
2018-Jan-21 19:28N 53°25' W 003°03'0 0.0
2018-Jan-21 18:58N 53°25' W 003°03'0 0.0
2018-Jan-21 18:28N 53°25' W 003°03'0 0.0
2018-Jan-21 17:58N 53°25' W 003°03'0 0.0
2018-Jan-21 17:28N 53°25' W 003°03'0 0.0
2018-Jan-21 16:58N 53°25' W 003°03'0 0.0
2018-Jan-21 16:28N 53°25' W 003°03'0 0.0
2018-Jan-21 15:58N 53°25' W 003°03'0 0.0
2018-Jan-21 15:28N 53°25' W 003°03'0 0.0
2018-Jan-21 14:58N 53°25' W 003°03'0 0.0
2018-Jan-21 14:28N 53°25' W 003°03'0 0.0
2018-Jan-21 13:58N 53°25' W 003°03'0 0.0
2018-Jan-21 13:28N 53°25' W 003°03'0 0.0
2018-Jan-21 12:58N 53°25' W 003°03'0 0.0
2018-Jan-21 12:28N 53°25' W 003°03'0 0.0
2018-Jan-21 11:49N 53°25' W 003°03'0 0.0
2018-Jan-21 11:28N 53°25' W 003°03'0 0.0
2018-Jan-21 10:58N 53°25' W 003°03'0 0.0
2018-Jan-21 10:25N 53°25' W 003°03'0 0.0
2018-Jan-21 09:55N 53°25' W 003°03'0 0.0
2018-Jan-21 09:28N 53°25' W 003°03'0 0.0
2018-Jan-21 08:55N 53°25' W 003°03'0 0.0
2018-Jan-21 08:28N 53°25' W 003°03'0 0.0
2018-Jan-21 07:58N 53°25' W 003°03'0 0.0
2018-Jan-21 07:25N 53°25' W 003°03'0 0.0
2018-Jan-21 06:58N 53°25' W 003°03'0 0.0
2018-Jan-21 06:25N 53°25' W 003°03'0 0.0
2018-Jan-21 05:58N 53°25' W 003°03'0 0.0
2018-Jan-21 05:28N 53°25' W 003°03'0 0.0
2018-Jan-21 04:58N 53°25' W 003°03'0 0.0
2018-Jan-21 04:25N 53°25' W 003°03'0 0.0
2018-Jan-21 04:00N 53°25' W 003°03'1 1.2
2018-Jan-21 03:30N 53°24' W 003°02'1 1.2
2018-Jan-21 03:00N 53°24' W 003°01'0 0.0
2018-Jan-21 02:28N 53°24' W 003°01'0 0.0
2018-Jan-21 02:00N 53°24' W 003°01'0 0.0
2018-Jan-21 01:30N 53°24' W 003°01'0 0.0
2018-Jan-21 01:00N 53°24' W 003°01'0 0.2
2018-Jan-21 00:30N 53°24' W 003°01'0 0.5
2018-Jan-21 00:00N 53°24' W 003°01'4 8.1
2018-Jan-20 23:30N 53°28' W 003°04'510.0
2018-Jan-20 23:00N 53°32' W 003°09'510.5
2018-Jan-20 22:30N 53°31' W 003°18'5 9.2
2018-Jan-20 22:00N 53°29' W 003°25'0 0.3
2018-Jan-20 21:28N 53°30' W 003°26'0 0.1
2018-Jan-20 20:58N 53°30' W 003°26'0 0.1
2018-Jan-20 20:28N 53°30' W 003°26'0 0.1
2018-Jan-20 19:58N 53°30' W 003°26'0 0.0
2018-Jan-20 19:28N 53°30' W 003°26'0 0.0
2018-Jan-20 18:58N 53°30' W 003°26'0 0.0
2018-Jan-20 18:28N 53°30' W 003°26'0 0.0
2018-Jan-20 17:58N 53°30' W 003°26'0 0.0
2018-Jan-20 17:22N 53°30' W 003°26'0 0.0
2018-Jan-20 16:58N 53°30' W 003°26'0 0.0
2018-Jan-20 16:28N 53°30' W 003°26'0 0.0
2018-Jan-20 16:00N 53°30' W 003°26'2 4.1
2018-Jan-20 15:30N 53°30' W 003°29'4 8.6
2018-Jan-20 15:00N 53°31' W 003°36'5 9.0
2018-Jan-20 14:30N 53°31' W 003°44'5 9.3
2018-Jan-20 14:00N 53°31' W 003°52'5 9.6
2018-Jan-20 13:30N 53°30' W 003°60'164 9.1
2018-Jan-19 19:26N 51°01' W 005°52'6 9.3
2018-Jan-19 18:49N 50°56' W 005°52'3 9.2
2018-Jan-19 18:30N 50°53' W 005°53'5 9.1
2018-Jan-19 18:01N 50°48' W 005°53'5 9.2
2018-Jan-19 17:27N 50°43' W 005°54'4 8.7
2018-Jan-19 17:00N 50°39' W 005°55'4 8.2
2018-Jan-19 16:31N 50°35' W 005°54'5 8.4
2018-Jan-19 15:58N 50°31' W 005°54'4 8.5
2018-Jan-19 15:30N 50°27' W 005°53'4 8.1
2018-Jan-19 15:01N 50°23' W 005°52'4 8.3
2018-Jan-19 14:31N 50°19' W 005°52'4 8.6
2018-Jan-19 14:00N 50°14' W 005°53'12 8.2
2018-Jan-19 12:33N 50°02' W 005°53'0 8.0
2018-Jan-19 12:30N 50°02' W 005°53'14 6.8
2018-Jan-19 10:23N 49°56' W 005°32'15 7.3
2018-Jan-19 08:23N 49°55' W 005°10'3 7.1
2018-Jan-19 08:00N 49°56' W 005°06'4 7.3
2018-Jan-19 07:30N 49°56' W 005°00'4 7.1
2018-Jan-19 07:00N 49°57' W 004°55'3 6.8
2018-Jan-19 06:31N 49°57' W 004°49'3 6.9
2018-Jan-19 06:01N 49°58' W 004°44'4 7.1
2018-Jan-19 05:31N 49°59' W 004°39'3 7.0
2018-Jan-19 05:00N 49°59' W 004°33'3 6.8
2018-Jan-19 04:31N 49°60' W 004°28'3 6.7
2018-Jan-19 04:01N 50°00' W 004°23'3 6.8
2018-Jan-19 03:30N 50°01' W 004°18'3 6.8
2018-Jan-19 03:00N 50°02' W 004°13'4 7.0
2018-Jan-19 02:30N 50°03' W 004°08'4 7.5
2018-Jan-19 02:01N 50°05' W 004°02'4 8.2
2018-Jan-19 01:30N 50°06' W 003°56'4 8.4
2018-Jan-19 01:00N 50°07' W 003°50'4 8.6
2018-Jan-19 00:31N 50°09' W 003°44'4 8.6
2018-Jan-19 00:01N 50°10' W 003°37'4 8.6
2018-Jan-18 23:31N 50°12' W 003°31'4 8.4
2018-Jan-18 23:00N 50°13' W 003°25'4 7.8
2018-Jan-18 22:31N 50°14' W 003°19'4 7.3
2018-Jan-18 22:00N 50°15' W 003°14'3 6.7
2018-Jan-18 21:30N 50°16' W 003°09'3 6.4
2018-Jan-18 21:01N 50°17' W 003°04'3 5.9
2018-Jan-18 20:31N 50°18' W 002°59'3 5.5
2018-Jan-18 20:00N 50°18' W 002°55'3 5.5
2018-Jan-18 19:30N 50°19' W 002°51'3 5.7
2018-Jan-18 19:00N 50°20' W 002°47'3 5.9
2018-Jan-18 18:31N 50°21' W 002°42'3 6.3
2018-Jan-18 18:00N 50°22' W 002°38'4 7.5
2018-Jan-18 17:31N 50°23' W 002°32'4 8.0
2018-Jan-18 17:01N 50°24' W 002°26'4 8.3
2018-Jan-18 16:31N 50°25' W 002°20'17 9.4
2018-Jan-18 14:43N 50°21' W 001°54'310.2
2018-Jan-18 14:25N 50°20' W 001°50'5 9.7
2018-Jan-18 13:53N 50°18' W 001°42'39 4.3
2018-Jan-18 04:55N 49°51' W 000°60'3 5.2
2018-Jan-18 04:25N 49°49' W 000°57'2 5.7
2018-Jan-18 04:00N 49°47' W 000°54'3 6.7
2018-Jan-18 03:31N 49°45' W 000°50'4 7.3
2018-Jan-18 03:01N 49°43' W 000°46'4 7.6
2018-Jan-18 02:31N 49°40' W 000°42'4 7.5
2018-Jan-18 02:01N 49°38' W 000°37'4 7.4
2018-Jan-18 01:30N 49°36' W 000°33'4 7.5
2018-Jan-18 01:01N 49°34' W 000°27'8 7.8
2018-Jan-18 00:01N 49°31' W 000°16'0 8.3
2018-Jan-17 23:58N 49°31' W 000°15'  
2018-Jan-12 15:00N 51°28' E 003°31'5 9.7
2018-Jan-12 14:30N 51°26' E 003°38'510.9
2018-Jan-12 14:00N 51°22' E 003°44'612.1
2018-Jan-12 13:30N 51°22' E 003°54'611.8
2018-Jan-12 13:00N 51°26' E 003°59'510.7
2018-Jan-12 12:31N 51°22' E 004°05'510.0
2018-Jan-12 12:00N 51°23' E 004°13'4 7.2
2018-Jan-12 11:28N 51°21' E 004°17'0 0.0
2018-Jan-12 11:00N 51°21' E 004°17'1 2.1
2018-Jan-12 10:30N 51°20' E 004°18'3 6.0
2018-Jan-12 10:01N 51°17' E 004°20'0 0.2
2018-Jan-12 09:30N 51°17' E 004°20'0 0.0
2018-Jan-12 09:00N 51°17' E 004°20'0 0.0
2018-Jan-12 08:27N 51°17' E 004°20'0 0.0
2018-Jan-12 08:00N 51°17' E 004°20'0 0.0
2018-Jan-12 07:30N 51°17' E 004°20'0 0.0
2018-Jan-12 07:00N 51°17' E 004°20'0 0.0
2018-Jan-12 06:30N 51°17' E 004°20'0 0.0
2018-Jan-12 05:57N 51°17' E 004°20'0 0.0
2018-Jan-12 05:27N 51°17' E 004°20'0 0.0
2018-Jan-12 05:00N 51°17' E 004°20'0 0.0
2018-Jan-12 04:27N 51°17' E 004°20'0 0.0
2018-Jan-12 04:00N 51°17' E 004°20'0 0.0
2018-Jan-12 03:21N 51°17' E 004°20'0 0.0
2018-Jan-12 02:57N 51°17' E 004°20'0 0.0
2018-Jan-12 02:30N 51°17' E 004°20'0 0.0
2018-Jan-12 02:00N 51°17' E 004°20'0 0.0
2018-Jan-12 01:30N 51°17' E 004°20'0 0.0
2018-Jan-12 00:51N 51°17' E 004°20'0 0.0
2018-Jan-12 00:30N 51°17' E 004°20'0 0.0
2018-Jan-12 00:00N 51°17' E 004°20'  

Dump ship's entire track history